AAL35 KLAX-KPHX
Flight info
| Callsign | AAL35 |
|---|---|
| Flight time | N/A |
| Altitude | 31000 |
| Route | DOTSS2 CNERY BLH HYDRR1 |
| Aircraft | A388/J-SADE2E3FGHIJ3J4J5M1RWXY/LB1D1 |
Departure
| Time | 2026-05-06 07:04 |
|---|---|
| Airport | Los Angeles International Airport (KLAX) |
Arrival
| Time | N/A |
|---|---|
| Airport | Phoenix Sky Harbor International Airport (KPHX) |
| Time | Latitude | Longitude | Altitude | Speed | Heading |
|---|---|---|---|---|---|
| 2026-05-06 07:01 | 33.93963 | -118.40604 | 124 ft | 0 kts | 322° |
| 2026-05-06 07:02 | 33.95042 | -118.39960 | 114 ft | 0 kts | 263° |
| 2026-05-06 07:03 | 33.95041 | -118.39961 | 114 ft | 1 kts | 263° |
| 2026-05-06 07:03 | 33.95007 | -118.40253 | 118 ft | 97 kts | 262° |
| 2026-05-06 07:03 | 33.94873 | -118.41555 | 268 ft | 200 kts | 263° |
| 2026-05-06 07:04 | 33.95100 | -118.43174 | 1070 ft | 206 kts | 310° |
| 2026-05-06 07:04 | 33.96460 | -118.43859 | 1445 ft | 221 kts | 351° |
| 2026-05-06 07:04 | 33.97984 | -118.43926 | 1885 ft | 228 kts | 4° |
| 2026-05-06 07:04 | 33.99588 | -118.43684 | 2222 ft | 236 kts | 12° |
| 2026-05-06 07:05 | 34.01099 | -118.43007 | 2800 ft | 229 kts | 28° |
| 2026-05-06 07:05 | 34.02650 | -118.42300 | 2817 ft | 248 kts | 15° |
| 2026-05-06 07:05 | 34.04300 | -118.41651 | 3141 ft | 247 kts | 21° |
| 2026-05-06 07:05 | 34.05846 | -118.40836 | 3735 ft | 238 kts | 26° |
| 2026-05-06 07:06 | 34.07052 | -118.39531 | 3303 ft | 255 kts | 57° |
| 2026-05-06 07:06 | 34.07721 | -118.37618 | 460 ft | 273 kts | 81° |
| 2026-05-06 07:06 | 34.07240 | -118.35892 | 1257 ft | 204 kts | 123° |
| 2026-05-06 07:06 | 34.06347 | -118.34557 | 1515 ft | 205 kts | 131° |
| 2026-05-06 07:07 | 34.05325 | -118.33331 | 1878 ft | 209 kts | 136° |
| 2026-05-06 07:07 | 34.04976 | -118.32954 | 1926 ft | 214 kts | 137° |
| 2026-05-06 07:07 | 34.04181 | -118.32166 | 1872 ft | 228 kts | 141° |
| 2026-05-06 07:07 | 34.02857 | -118.31012 | 2012 ft | 229 kts | 144° |
| 2026-05-06 07:08 | 34.01693 | -118.29774 | 2251 ft | 230 kts | 129° |
| 2026-05-06 07:08 | 34.00876 | -118.28030 | 1926 ft | 247 kts | 108° |
| 2026-05-06 07:08 | 34.00716 | -118.26025 | 2244 ft | 240 kts | 90° |
| 2026-05-06 07:08 | 34.00817 | -118.23995 | 2429 ft | 242 kts | 83° |
| 2026-05-06 07:09 | 34.00928 | -118.21999 | 2688 ft | 240 kts | 89° |
| 2026-05-06 07:09 | 34.00842 | -118.20001 | 2937 ft | 240 kts | 95° |
| 2026-05-06 07:09 | 34.00586 | -118.18010 | 3146 ft | 241 kts | 99° |
| 2026-05-06 07:09 | 34.00277 | -118.16037 | 3451 ft | 239 kts | 100° |
| 2026-05-06 07:10 | 33.99945 | -118.14044 | 3565 ft | 245 kts | 101° |
| 2026-05-06 07:10 | 33.99409 | -118.12111 | 3839 ft | 242 kts | 121° |
| 2026-05-06 07:10 | 33.99271 | -118.11875 | 3858 ft | 243 kts | 125° |
| 2026-05-06 07:10 | 33.97901 | -118.10637 | 3588 ft | 262 kts | 157° |
| 2026-05-06 07:11 | 33.96209 | -118.10384 | 4481 ft | 225 kts | 187° |
| 2026-05-06 07:11 | 33.94776 | -118.10343 | 5116 ft | 217 kts | 171° |
| 2026-05-06 07:11 | 33.93243 | -118.09892 | 5203 ft | 233 kts | 163° |
| 2026-05-06 07:11 | 33.91687 | -118.09257 | 5388 ft | 238 kts | 159° |
| 2026-05-06 07:12 | 33.90129 | -118.08519 | 5639 ft | 240 kts | 158° |
| 2026-05-06 07:12 | 33.88572 | -118.07788 | 5853 ft | 243 kts | 158° |
| 2026-05-06 07:12 | 33.86979 | -118.07069 | 6107 ft | 243 kts | 159° |
| 2026-05-06 07:12 | 33.85406 | -118.06276 | 6326 ft | 244 kts | 156° |
| 2026-05-06 07:13 | 33.84885 | -118.06021 | 6410 ft | 244 kts | 157° |